Time;durP1;ratioP1;P1;durP2;ratioP2;P2;SDS_P1;SDS_P2;PMS_P1;PMS_P2;Temp;Humidity;BMP_temperature;BMP_pressure;BME280_temperature;BME280_humidity;BME280_pressure;Samples;Min_cycle;Max_cycle;Signal;HPM_P1;HPM_P2
2023/09/19 00:01:06;;;;;;;16.55;3.10;;;;;;;16.03;100.00;100903.41;5198085;28;20112;-82
2023/09/19 00:03:37;;;;;;;17.00;3.13;;;;;;;15.97;100.00;100912.34;5194518;28;20037;-82
2023/09/19 00:06:08;;;;;;;13.85;2.80;;;;;;;16.01;100.00;100916.31;5195853;28;20050;-83
2023/09/19 00:08:38;;;;;;;15.05;3.00;;;;;;;15.95;100.00;100911.69;5181114;28;20099;-82
2023/09/19 00:11:10;;;;;;;12.35;2.35;;;;;;;15.93;100.00;100911.06;5201557;28;20030;-82
2023/09/19 00:13:41;;;;;;;14.30;3.53;;;;;;;15.90;100.00;100927.69;5195143;28;20033;-82
2023/09/19 00:16:12;;;;;;;11.88;2.20;;;;;;;15.83;100.00;100923.28;5198637;28;20080;-83
2023/09/19 00:18:42;;;;;;;13.23;2.30;;;;;;;15.88;100.00;100924.34;5187263;28;20036;-82
2023/09/19 00:21:13;;;;;;;15.20;2.70;;;;;;;15.89;100.00;100925.19;5199398;28;20488;-83
2023/09/19 00:23:43;;;;;;;16.40;2.90;;;;;;;15.89;100.00;100936.84;5193530;28;20113;-82
2023/09/19 00:26:14;;;;;;;13.50;2.55;;;;;;;15.81;100.00;100934.28;5196908;28;20034;-82
2023/09/19 00:28:44;;;;;;;11.15;2.65;;;;;;;15.83;100.00;100936.81;5196925;28;20034;-81
2023/09/19 00:31:15;;;;;;;14.43;2.42;;;;;;;15.79;100.00;100941.78;5198927;28;20044;-82
2023/09/19 00:33:45;;;;;;;16.58;2.83;;;;;;;15.78;100.00;100943.66;5198080;28;20076;-84
2023/09/19 00:36:16;;;;;;;17.83;2.85;;;;;;;15.75;100.00;100948.59;5205354;28;20025;-82
2023/09/19 00:38:46;;;;;;;13.20;2.65;;;;;;;15.80;100.00;100955.09;5198811;28;20025;-82
2023/09/19 00:41:17;;;;;;;14.25;2.67;;;;;;;15.86;100.00;100948.03;5203237;28;20112;-84
2023/09/19 00:43:47;;;;;;;14.23;2.40;;;;;;;15.84;100.00;100949.28;5198969;28;20040;-82
2023/09/19 00:46:18;;;;;;;22.67;3.10;;;;;;;15.73;100.00;100951.50;5202204;28;20053;-82
2023/09/19 00:48:49;;;;;;;16.50;2.03;;;;;;;15.75;100.00;100945.91;5200392;28;20041;-82
2023/09/19 00:51:21;;;;;;;16.40;2.83;;;;;;;15.75;100.00;100957.56;5198345;28;20029;-83
2023/09/19 00:53:52;;;;;;;9.52;1.98;;;;;;;15.75;100.00;100956.72;5193216;28;20072;-83
2023/09/19 00:56:23;;;;;;;12.60;2.60;;;;;;;15.63;100.00;100956.44;5200030;28;20377;-82
2023/09/19 00:58:53;;;;;;;18.52;2.95;;;;;;;15.67;100.00;100965.84;5198194;28;20037;-82
2023/09/19 01:01:25;;;;;;;12.90;2.53;;;;;;;15.64;100.00;100968.91;5204170;28;20034;-82
2023/09/19 01:03:55;;;;;;;16.85;2.47;;;;;;;15.64;100.00;100965.38;5198405;28;20492;-82
2023/09/19 01:06:36;;;;;;;14.50;2.85;;;;;;;15.60;100.00;100966.78;5197405;28;20033;-82
2023/09/19 01:09:08;;;;;;;14.38;2.92;;;;;;;15.59;100.00;100967.81;5205783;28;20108;-81
2023/09/19 01:11:45;;;;;;;17.05;3.30;;;;;;;15.59;100.00;100968.63;5196871;28;20029;-82
2023/09/19 01:14:31;;;;;;;13.50;3.03;;;;;;;15.54;100.00;100971.09;5202351;28;20035;-82
2023/09/19 01:17:09;;;;;;;15.85;2.60;;;;;;;15.53;100.00;100974.84;5198536;28;20083;-82
2023/09/19 01:20:01;;;;;;;9.30;2.20;;;;;;;15.48;100.00;100974.59;5198045;28;20065;-83
2023/09/19 01:22:49;;;;;;;14.00;2.92;;;;;;;15.47;100.00;100971.06;5197121;28;20040;-83
2023/09/19 01:25:36;;;;;;;22.38;3.22;;;;;;;15.39;100.00;100976.59;5198625;28;20033;-82
2023/09/19 01:28:26;;;;;;;10.27;2.38;;;;;;;15.40;100.00;100972.00;5197452;28;20037;-82
2023/09/19 01:30:58;;;;;;;17.20;2.42;;;;;;;15.35;100.00;100978.00;5194782;28;20064;-84
2023/09/19 01:33:57;;;;;;;13.05;2.38;;;;;;;15.28;100.00;100983.34;5194280;28;20037;-82
2023/09/19 01:36:30;;;;;;;13.65;2.65;;;;;;;15.23;100.00;100977.69;5196961;28;20105;-82
2023/09/19 01:39:05;;;;;;;13.30;2.85;;;;;;;15.24;100.00;100982.06;5199033;28;20030;-82
2023/09/19 01:42:05;;;;;;;20.08;3.35;;;;;;;15.20;100.00;100985.34;5195741;28;20151;-82
2023/09/19 01:44:44;;;;;;;21.02;2.90;;;;;;;15.16;100.00;100975.94;5197421;28;20033;-81
2023/09/19 01:47:34;;;;;;;16.10;2.67;;;;;;;15.21;100.00;100978.91;5203714;28;20403;-82
2023/09/19 01:50:18;;;;;;;11.95;2.90;;;;;;;15.23;100.00;100991.22;5194276;28;20121;-82
2023/09/19 01:52:56;;;;;;;10.98;2.80;;;;;;;15.20;100.00;100986.19;5187731;28;20627;-82
2023/09/19 01:55:29;;;;;;;15.38;2.80;;;;;;;15.18;100.00;100987.41;5198304;28;20499;-82
2023/09/19 01:58:04;;;;;;;17.85;2.60;;;;;;;15.16;100.00;100989.44;5204217;28;20124;-84
2023/09/19 02:00:37;;;;;;;12.77;2.35;;;;;;;15.17;100.00;100985.75;5202975;28;20029;-82
2023/09/19 02:03:10;;;;;;;13.27;2.20;;;;;;;15.17;100.00;100989.28;5204058;28;20091;-82
2023/09/19 02:05:40;;;;;;;11.07;2.70;;;;;;;15.23;100.00;100988.50;5203260;28;20029;-82
2023/09/19 02:08:11;;;;;;;21.33;2.75;;;;;;;15.20;100.00;100980.78;5205870;28;20517;-84
2023/09/19 02:10:42;;;;;;;15.80;2.90;;;;;;;15.16;100.00;100984.91;5204840;28;20029;-82
2023/09/19 02:13:13;;;;;;;15.27;2.60;;;;;;;15.16;100.00;100990.31;5204442;28;20155;-82
2023/09/19 02:15:45;;;;;;;15.60;2.58;;;;;;;15.13;100.00;100981.75;5207400;28;20022;-82
2023/09/19 02:18:16;;;;;;;16.52;2.63;;;;;;;15.14;100.00;100980.72;5200824;28;20510;-82
2023/09/19 02:20:47;;;;;;;19.98;3.30;;;;;;;15.17;100.00;100978.47;5199631;28;20022;-82
2023/09/19 02:23:18;;;;;;;12.38;2.97;;;;;;;15.15;100.00;100975.09;5202432;28;20044;-82
2023/09/19 02:25:56;;;;;;;7.47;2.47;;;;;;;15.21;100.00;100966.25;5201010;28;20026;-82
2023/09/19 02:28:33;;;;;;;21.55;3.63;;;;;;;15.19;100.00;100972.88;5200798;28;20653;-82
2023/09/19 02:31:05;;;;;;;19.42;2.95;;;;;;;15.23;100.00;100964.19;5192679;28;20026;-82
2023/09/19 02:33:37;;;;;;;11.63;2.42;;;;;;;15.23;100.00;100964.19;5195905;28;20186;-82
2023/09/19 02:36:08;;;;;;;15.80;2.60;;;;;;;15.25;100.00;100959.41;5198041;28;20049;-82
2023/09/19 02:38:39;;;;;;;14.70;3.15;;;;;;;15.22;100.00;100969.78;5199083;28;20022;-83
2023/09/19 02:41:09;;;;;;;14.10;2.40;;;;;;;15.31;100.00;100974.00;5198612;28;20071;-82
2023/09/19 02:43:40;;;;;;;16.80;3.00;;;;;;;15.37;100.00;100983.22;5198056;28;20036;-82
2023/09/19 02:46:11;;;;;;;16.95;2.78;;;;;;;15.38;100.00;100983.03;5197236;28;20032;-82
2023/09/19 02:48:41;;;;;;;17.55;3.28;;;;;;;15.47;100.00;100981.03;5198939;28;20056;-82
2023/09/19 02:51:13;;;;;;;15.60;2.53;;;;;;;15.54;100.00;100985.44;5196127;28;20049;-82
2023/09/19 02:53:44;;;;;;;12.25;2.22;;;;;;;15.64;100.00;100984.31;5192469;28;20087;-82
2023/09/19 02:56:15;;;;;;;20.10;3.08;;;;;;;15.74;100.00;100988.34;5199208;28;20487;-82
2023/09/19 02:58:48;;;;;;;16.48;2.97;;;;;;;15.77;100.00;100990.66;5194434;28;20103;-83
2023/09/19 03:01:19;;;;;;;23.05;2.72;;;;;;;15.77;100.00;100987.13;5200310;28;20021;-82
2023/09/19 03:03:49;;;;;;;16.50;3.17;;;;;;;15.70;100.00;100992.47;5203174;28;20034;-82
2023/09/19 03:06:21;;;;;;;15.65;2.70;;;;;;;15.77;100.00;100989.84;5192654;28;20026;-83
2023/09/19 03:08:52;;;;;;;22.33;3.67;;;;;;;15.76;100.00;100994.41;5193448;28;20118;-82
2023/09/19 03:11:23;;;;;;;15.82;2.58;;;;;;;15.72;100.00;100992.28;5200340;28;20535;-82
2023/09/19 03:13:53;;;;;;;19.85;3.38;;;;;;;15.60;100.00;100996.50;5194369;28;20061;-81
2023/09/19 03:16:25;;;;;;;16.15;3.15;;;;;;;15.65;100.00;100984.09;5200552;28;20419;-82
2023/09/19 03:18:55;;;;;;;13.55;2.58;;;;;;;15.60;100.00;100991.09;5195412;28;20033;-82
2023/09/19 03:21:26;;;;;;;10.98;2.83;;;;;;;15.52;100.00;100987.53;5195651;28;20099;-83
2023/09/19 03:23:56;;;;;;;18.17;2.33;;;;;;;15.49;100.00;100987.91;5196225;28;20060;-83
2023/09/19 03:26:27;;;;;;;14.98;3.15;;;;;;;15.59;100.00;100997.56;5201836;28;20030;-82
2023/09/19 03:28:57;;;;;;;15.52;2.90;;;;;;;15.65;100.00;101003.03;5200705;28;20021;-81
2023/09/19 03:31:28;;;;;;;9.18;2.38;;;;;;;15.63;100.00;101002.41;5195360;28;20018;-82
2023/09/19 03:33:59;;;;;;;15.55;2.97;;;;;;;15.64;100.00;100993.25;5196254;28;20033;-81
2023/09/19 03:36:30;;;;;;;19.00;3.13;;;;;;;15.65;100.00;100984.09;5201511;28;20024;-82
2023/09/19 03:39:01;;;;;;;15.10;2.50;;;;;;;15.68;100.00;100994.53;5197522;28;20029;-80
2023/09/19 03:41:33;;;;;;;13.63;2.45;;;;;;;15.70;100.00;100997.88;5202602;28;20135;-84
2023/09/19 03:44:03;;;;;;;14.25;2.58;;;;;;;15.67;100.00;100995.59;5198584;28;20123;-82
2023/09/19 03:46:36;;;;;;;14.85;2.45;;;;;;;15.69;100.00;100979.97;5198382;28;20056;-81
2023/09/19 03:49:06;;;;;;;16.13;2.47;;;;;;;15.63;100.00;100994.28;5194375;28;20557;-82
2023/09/19 03:51:37;;;;;;;15.40;2.03;;;;;;;15.73;100.00;100989.38;5196649;28;20025;-81
2023/09/19 03:54:08;;;;;;;14.65;3.08;;;;;;;15.79;100.00;101001.28;5196002;28;20052;-82
2023/09/19 03:56:38;;;;;;;11.00;2.28;;;;;;;15.74;100.00;100988.34;5197820;28;20017;-82
2023/09/19 03:59:09;;;;;;;11.25;2.83;;;;;;;15.71;100.00;100987.88;5198482;28;20033;-82
2023/09/19 04:01:41;;;;;;;16.10;2.38;;;;;;;15.71;100.00;100998.72;5197527;28;20068;-81
2023/09/19 04:04:14;;;;;;;12.82;2.33;;;;;;;15.67;100.00;101011.81;5198974;28;20041;-83
2023/09/19 04:06:44;;;;;;;17.10;2.25;;;;;;;15.71;100.00;101026.63;5199674;28;20052;-82
2023/09/19 04:09:15;;;;;;;14.63;2.88;;;;;;;15.72;100.00;101016.63;5196891;28;20113;-82
2023/09/19 04:11:45;;;;;;;11.85;2.00;;;;;;;15.73;100.00;101018.31;5199337;28;20033;-83
2023/09/19 04:14:16;;;;;;;14.23;2.65;;;;;;;15.75;100.00;101016.22;5184479;28;20040;-82
2023/09/19 04:16:46;;;;;;;18.33;2.83;;;;;;;15.72;100.00;101027.44;5174772;28;20026;-82
2023/09/19 04:19:17;;;;;;;15.63;2.55;;;;;;;15.72;100.00;101011.22;5191225;28;20028;-82
2023/09/19 04:21:48;;;;;;;17.60;2.78;;;;;;;15.62;100.00;101014.22;5187483;28;20491;-82
2023/09/19 04:24:19;;;;;;;16.83;2.65;;;;;;;15.61;100.00;101009.00;5193024;28;20483;-81
2023/09/19 04:26:49;;;;;;;19.45;3.08;;;;;;;15.46;100.00;100999.13;5194565;28;20030;-81
2023/09/19 04:29:20;;;;;;;24.95;3.50;;;;;;;15.49;100.00;101000.59;5195544;28;20049;-82
2023/09/19 04:31:51;;;;;;;20.95;3.95;;;;;;;15.40;100.00;101001.75;5193549;28;20029;-83
2023/09/19 04:34:23;;;;;;;15.43;2.53;;;;;;;15.38;100.00;101001.94;5191472;28;20073;-82
2023/09/19 04:36:56;;;;;;;16.83;2.65;;;;;;;15.27;100.00;101008.72;5193901;28;20021;-82
2023/09/19 04:39:27;;;;;;;21.92;2.60;;;;;;;15.30;100.00;101018.28;5197643;28;20025;-81
2023/09/19 04:41:58;;;;;;;18.38;3.15;;;;;;;15.32;100.00;101026.22;5191582;28;20021;-81
2023/09/19 04:44:29;;;;;;;19.98;3.13;;;;;;;15.31;100.00;101028.06;5198623;28;20026;-82
2023/09/19 04:47:00;;;;;;;24.67;3.35;;;;;;;15.21;100.00;101036.53;5189228;28;20228;-81
2023/09/19 04:49:30;;;;;;;16.35;2.60;;;;;;;15.28;100.00;101039.28;5198670;28;20040;-82
2023/09/19 04:52:01;;;;;;;13.18;2.90;;;;;;;15.27;100.00;101045.72;5198023;28;20017;-82
2023/09/19 04:54:31;;;;;;;15.50;2.72;;;;;;;15.18;100.00;101036.88;5186177;28;20043;-81
2023/09/19 04:57:02;;;;;;;18.55;2.70;;;;;;;15.18;100.00;101041.47;5194298;28;20025;-81
2023/09/19 04:59:32;;;;;;;18.13;2.70;;;;;;;15.08;100.00;101039.06;5192007;28;20110;-82
2023/09/19 05:02:03;;;;;;;15.05;2.90;;;;;;;15.06;100.00;101051.94;5185651;28;20055;-81
2023/09/19 05:04:33;;;;;;;17.95;2.40;;;;;;;15.07;100.00;101050.06;5187045;28;20036;-81
2023/09/19 05:07:04;;;;;;;17.73;3.17;;;;;;;15.03;100.00;101058.56;5187190;28;20022;-81
2023/09/19 05:09:37;;;;;;;15.15;2.03;;;;;;;14.97;100.00;101062.03;5192670;28;20025;-82
2023/09/19 05:12:10;;;;;;;14.93;3.13;;;;;;;14.90;100.00;101055.69;5193991;28;20040;-81
2023/09/19 05:14:41;;;;;;;13.52;2.58;;;;;;;14.90;100.00;101058.38;5184687;28;20022;-81
2023/09/19 05:17:13;;;;;;;22.85;4.00;;;;;;;14.90;100.00;101062.94;5197086;28;20044;-80
2023/09/19 05:19:43;;;;;;;23.50;3.25;;;;;;;14.89;100.00;101062.13;5184880;28;20046;-81
2023/09/19 05:22:14;;;;;;;41.33;3.47;;;;;;;14.88;100.00;101065.84;5188074;28;20053;-82
2023/09/19 05:24:47;;;;;;;17.80;3.35;;;;;;;14.92;100.00;101071.72;5187102;28;20025;-81
2023/09/19 05:27:20;;;;;;;24.20;3.67;;;;;;;14.84;100.00;101071.81;5180301;28;20061;-82
2023/09/19 05:29:53;;;;;;;15.00;2.92;;;;;;;14.85;100.00;101070.78;5193633;28;20715;-80
2023/09/19 05:32:23;;;;;;;21.70;3.10;;;;;;;14.88;100.00;101073.13;5198740;28;20025;-80
2023/09/19 05:34:56;;;;;;;23.27;3.80;;;;;;;14.84;100.00;101064.53;5192765;28;20032;-81
2023/09/19 05:37:26;;;;;;;14.75;2.72;;;;;;;14.92;100.00;101061.75;5198115;28;20029;-81
2023/09/19 05:39:57;;;;;;;15.50;2.60;;;;;;;14.92;100.00;101055.50;5196773;28;20022;-80
2023/09/19 05:42:27;;;;;;;13.70;2.78;;;;;;;14.94;100.00;101059.69;5195054;28;20476;-82
2023/09/19 05:44:58;;;;;;;12.48;2.63;;;;;;;14.95;100.00;101055.13;5195373;28;20226;-81
2023/09/19 05:47:28;;;;;;;15.63;2.88;;;;;;;15.02;100.00;101067.69;5203969;28;20025;-81
2023/09/19 05:49:59;;;;;;;25.50;3.17;;;;;;;15.00;100.00;101060.78;5196206;28;20041;-82
2023/09/19 05:52:30;;;;;;;17.85;2.97;;;;;;;14.96;100.00;101064.88;5197169;28;20027;-81
2023/09/19 05:55:00;;;;;;;20.65;2.50;;;;;;;15.01;100.00;101062.50;5194631;28;20076;-81
2023/09/19 05:57:31;;;;;;;16.77;3.15;;;;;;;15.02;100.00;101067.69;5200520;28;20032;-82
2023/09/19 06:00:01;;;;;;;12.48;2.17;;;;;;;15.09;100.00;101072.31;5192749;28;20037;-81
2023/09/19 06:02:33;;;;;;;18.75;3.03;;;;;;;15.11;100.00;101065.72;5189947;28;20031;-83
2023/09/19 06:05:06;;;;;;;12.75;2.60;;;;;;;15.19;100.00;101076.38;5180350;28;20021;-82
2023/09/19 06:07:37;;;;;;;22.55;3.92;;;;;;;15.26;100.00;101074.63;5197175;28;20240;-82
2023/09/19 06:10:09;;;;;;;21.05;3.08;;;;;;;15.35;100.00;101078.00;5199489;28;20032;-82
2023/09/19 06:12:44;;;;;;;20.30;3.22;;;;;;;15.40;100.00;101069.34;5195716;28;20549;-83
2023/09/19 06:15:18;;;;;;;15.80;2.90;;;;;;;15.48;100.00;101082.72;5196419;28;20024;-81
2023/09/19 06:17:50;;;;;;;11.80;3.00;;;;;;;15.44;100.00;101081.44;5184257;28;20129;-82
2023/09/19 06:20:22;;;;;;;13.52;3.00;;;;;;;15.45;100.00;101077.69;5198306;28;20079;-83
2023/09/19 06:22:53;;;;;;;22.42;3.80;;;;;;;15.56;100.00;101066.38;5189806;28;20116;-81
2023/09/19 06:25:24;;;;;;;18.25;3.20;;;;;;;15.54;100.00;101074.69;5184558;28;20104;-83
2023/09/19 06:27:55;;;;;;;18.10;3.40;;;;;;;15.58;100.00;101069.72;5171595;28;20104;-83
2023/09/19 06:30:26;;;;;;;19.42;3.10;;;;;;;15.63;100.00;101074.56;5194298;28;20084;-81
2023/09/19 06:32:57;;;;;;;15.90;3.15;;;;;;;15.73;100.00;101083.22;5191387;28;20034;-83
2023/09/19 06:35:32;;;;;;;20.05;2.72;;;;;;;15.84;100.00;101076.44;5194946;28;20029;-82
2023/09/19 06:38:04;;;;;;;21.08;3.33;;;;;;;15.87;100.00;101082.31;5198954;28;20065;-83
2023/09/19 06:40:35;;;;;;;20.35;3.25;;;;;;;15.99;100.00;101082.59;5203653;28;20032;-82
2023/09/19 06:43:05;;;;;;;18.70;4.07;;;;;;;16.18;100.00;101084.63;5194604;28;20409;-82
2023/09/19 06:45:36;;;;;;;15.73;2.95;;;;;;;16.30;100.00;101087.59;5198506;28;20025;-82
2023/09/19 06:48:06;;;;;;;21.55;3.22;;;;;;;16.29;100.00;101094.91;5194951;28;20503;-82
2023/09/19 06:50:38;;;;;;;14.82;3.08;;;;;;;16.43;100.00;101100.41;5198837;28;20040;-83
2023/09/19 06:53:09;;;;;;;15.70;2.35;;;;;;;16.51;100.00;101094.81;5184097;28;20054;-83
2023/09/19 06:55:40;;;;;;;14.68;2.53;;;;;;;16.49;100.00;101103.16;5196895;28;20549;-82
2023/09/19 06:58:11;;;;;;;18.88;2.45;;;;;;;16.64;100.00;101100.31;5215751;28;20030;-82
2023/09/19 07:00:41;;;;;;;13.85;2.60;;;;;;;16.56;100.00;101095.06;5191468;28;20083;-82
2023/09/19 07:03:16;;;;;;;16.85;2.65;;;;;;;16.64;100.00;101094.06;5192569;28;20029;-82
2023/09/19 07:05:48;;;;;;;12.17;2.30;;;;;;;16.63;100.00;101095.13;5194990;28;20030;-81
2023/09/19 07:08:19;;;;;;;14.88;2.53;;;;;;;16.68;100.00;101095.34;5191217;28;20025;-82
2023/09/19 07:10:54;;;;;;;10.77;3.10;;;;;;;16.72;100.00;101102.91;5194664;28;20033;-82
2023/09/19 07:13:25;;;;;;;10.93;2.40;;;;;;;16.77;100.00;101108.56;5193844;28;20076;-81
2023/09/19 07:15:59;;;;;;;14.88;2.35;;;;;;;16.94;100.00;101102.81;5191315;28;20029;-82
2023/09/19 07:18:29;;;;;;;12.87;2.90;;;;;;;17.07;100.00;101092.84;5195686;28;20548;-82
2023/09/19 07:21:04;;;;;;;11.60;2.22;;;;;;;17.08;100.00;101093.69;5193689;28;20289;-82
2023/09/19 07:23:35;;;;;;;15.10;2.80;;;;;;;17.13;100.00;101088.50;5182983;28;20076;-81
2023/09/19 07:26:05;;;;;;;16.33;2.67;;;;;;;17.21;100.00;101085.56;5196257;28;20025;-82
2023/09/19 07:28:36;;;;;;;12.75;2.47;;;;;;;17.21;100.00;101093.72;5201888;28;20025;-82
2023/09/19 07:31:09;;;;;;;11.02;2.40;;;;;;;17.46;100.00;101093.16;5192315;28;20057;-81
2023/09/19 07:33:41;;;;;;;15.48;2.60;;;;;;;17.77;100.00;101089.88;5206602;28;20031;-82
2023/09/19 07:36:13;;;;;;;13.90;2.20;;;;;;;17.98;100.00;101088.88;5198194;28;20025;-82
2023/09/19 07:38:43;;;;;;;7.88;2.50;;;;;;;18.21;100.00;101089.25;5200889;28;20049;-82
2023/09/19 07:41:14;;;;;;;19.20;2.70;;;;;;;18.07;100.00;101095.75;5200968;28;20049;-83
2023/09/19 07:43:44;;;;;;;15.77;3.17;;;;;;;17.99;100.00;101091.38;5194536;28;20018;-83
2023/09/19 07:46:15;;;;;;;15.32;2.60;;;;;;;18.24;100.00;101094.28;5197595;28;20025;-82
2023/09/19 07:48:48;;;;;;;12.95;2.75;;;;;;;18.52;100.00;101106.75;5179698;28;20014;-82
2023/09/19 07:51:19;;;;;;;12.98;2.97;;;;;;;18.40;100.00;101100.31;5202373;28;20634;-83
2023/09/19 07:53:49;;;;;;;12.85;2.65;;;;;;;18.30;100.00;101103.47;5193415;28;20058;-82
2023/09/19 07:56:20;;;;;;;16.38;2.72;;;;;;;18.36;100.00;101102.63;5196578;28;20017;-82
2023/09/19 07:58:51;;;;;;;15.20;3.25;;;;;;;18.45;100.00;101095.91;5194716;28;20468;-83
2023/09/19 08:01:23;;;;;;;17.85;3.05;;;;;;;18.58;100.00;101093.19;5188602;28;20024;-84
2023/09/19 08:03:54;;;;;;;11.93;2.70;;;;;;;18.35;100.00;101090.91;5196051;28;20677;-82
2023/09/19 08:06:30;;;;;;;19.63;3.30;;;;;;;18.47;100.00;101093.81;5195688;28;20156;-83
2023/09/19 08:09:07;;;;;;;11.18;2.28;;;;;;;18.82;100.00;101093.53;5191857;28;20087;-85
2023/09/19 08:11:39;;;;;;;13.90;3.25;;;;;;;18.81;100.00;101094.59;5197073;28;20075;-84
2023/09/19 08:14:13;;;;;;;17.05;3.50;;;;;;;18.96;100.00;101097.88;5191481;28;20028;-83
2023/09/19 08:16:44;;;;;;;;;;;;;;;18.99;100.00;101096.63;5200661;28;20021;-84
2023/09/19 08:19:15;;;;;;;15.73;2.65;;;;;;;18.99;100.00;101102.91;5199968;28;19951;-83
2023/09/19 08:21:47;;;;;;;15.02;2.70;;;;;;;19.07;100.00;101096.38;5194392;28;20030;-83
2023/09/19 08:24:18;;;;;;;20.88;2.65;;;;;;;19.29;100.00;101095.00;5189768;28;20084;-83
2023/09/19 08:26:51;;;;;;;15.57;2.63;;;;;;;19.35;100.00;101096.84;5185888;28;20038;-83
2023/09/19 08:29:27;;;;;;;14.63;2.90;;;;;;;19.20;100.00;101088.16;5191731;28;20373;-82
2023/09/19 08:31:58;;;;;;;14.60;2.67;;;;;;;19.62;100.00;101094.00;5194144;28;20030;-83
2023/09/19 08:34:33;;;;;;;13.80;2.97;;;;;;;19.82;100.00;101086.50;5192198;28;20515;-82
2023/09/19 08:37:04;;;;;;;14.70;3.22;;;;;;;19.96;100.00;101087.25;5202774;28;20025;-83
2023/09/19 08:39:36;;;;;;;18.88;2.70;;;;;;;19.96;100.00;101095.41;5201216;28;20032;-83
2023/09/19 08:42:07;;;;;;;20.52;2.97;;;;;;;19.84;100.00;101095.31;5201806;28;20030;-85
2023/09/19 08:44:40;;;;;;;14.68;2.40;;;;;;;19.74;100.00;101092.25;5197814;28;20029;-83
2023/09/19 08:47:14;;;;;;;13.88;2.72;;;;;;;19.82;100.00;101102.84;5194188;28;20116;-83
2023/09/19 08:49:57;;;;;;;11.30;2.58;;;;;;;19.12;100.00;101089.22;5192346;28;20052;-80
2023/09/19 08:52:36;;;;;;;18.58;3.03;;;;;;;19.39;100.00;101092.66;5195538;28;20037;-81
2023/09/19 08:55:11;;;;;;;14.20;2.72;;;;;;;19.83;100.00;101101.81;5193668;28;20137;-81
2023/09/19 08:57:44;;;;;;;17.13;3.55;;;;;;;19.94;100.00;101094.81;5191882;28;20037;-80
2023/09/19 09:00:17;;;;;;;15.15;2.78;;;;;;;20.27;100.00;101091.78;5195187;28;20029;-81
2023/09/19 09:02:49;;;;;;;17.90;2.97;;;;;;;20.18;100.00;101091.25;5192685;28;20384;-80
2023/09/19 09:05:22;;;;;;;13.60;2.55;;;;;;;20.16;100.00;101077.00;5194887;28;20022;-81
2023/09/19 09:07:56;;;;;;;19.70;2.90;;;;;;;20.04;100.00;101086.16;5192483;28;20025;-81
2023/09/19 09:10:26;;;;;;;11.65;2.47;;;;;;;19.92;100.00;101091.47;5188889;28;20022;-81
2023/09/19 09:12:58;;;;;;;12.48;2.33;;;;;;;19.97;100.00;101078.00;5196496;28;20055;-81
2023/09/19 09:15:32;;;;;;;12.05;2.40;;;;;;;20.15;100.00;101090.84;5194249;28;20025;-80
2023/09/19 09:18:04;;;;;;;12.30;2.60;;;;;;;20.04;100.00;101083.41;5186642;28;20113;-82
2023/09/19 09:20:35;;;;;;;8.43;2.45;;;;;;;20.06;100.00;101084.03;5200797;28;20052;-81
2023/09/19 09:23:06;;;;;;;11.52;2.75;;;;;;;20.14;100.00;101089.19;5183261;28;20036;-81
2023/09/19 09:25:56;;;;;;;11.93;2.72;;;;;;;20.25;100.00;101076.72;5198685;28;20034;-81
2023/09/19 09:28:28;;;;;;;11.20;2.60;;;;;;;20.37;100.00;101077.63;5199354;28;20036;-80
2023/09/19 09:31:07;;;;;;;16.88;3.08;;;;;;;20.21;100.00;101078.22;5196921;28;20041;-82
2023/09/19 09:33:39;;;;;;;15.63;2.60;;;;;;;20.62;100.00;101077.63;5204789;28;20029;-81
2023/09/19 09:36:11;;;;;;;10.48;2.28;;;;;;;20.60;100.00;101075.13;5194616;28;20032;-81
2023/09/19 09:38:46;;;;;;;9.55;2.35;;;;;;;20.44;100.00;101067.53;5193652;28;20053;-81
2023/09/19 09:41:27;;;;;;;12.98;2.65;;;;;;;20.31;100.00;101068.47;5189097;28;20537;-80
2023/09/19 09:44:14;;;;;;;14.23;2.70;;;;;;;20.14;100.00;101064.69;5191726;28;20026;-80
2023/09/19 09:49:32;;;;;;;10.77;2.10;;;;;;;20.22;100.00;101063.53;5191090;28;20028;-81
2023/09/19 09:52:07;;;;;;;11.43;2.03;;;;;;;20.13;100.00;101055.69;5188351;28;20088;-79
2023/09/19 09:54:37;;;;;;;;;;;;;;;20.04;100.00;101067.09;5196711;28;20018;-80
2023/09/19 09:57:14;;;;;;;14.18;2.10;;;;;;;20.12;100.00;101067.59;5205680;28;19919;-81
2023/09/19 09:59:49;;;;;;;9.52;2.00;;;;;;;19.91;100.00;101068.84;5201156;28;20037;-81
2023/09/19 10:02:28;;;;;;;11.05;2.33;;;;;;;19.74;100.00;101061.47;5194721;28;20059;-81
2023/09/19 10:05:40;;;;;;;11.45;2.58;;;;;;;19.99;100.00;101061.47;5193655;28;20053;-81
2023/09/19 10:08:00;;;;;;;9.25;2.00;;;;;;;20.20;100.00;101077.41;5197664;28;20754;-80
2023/09/19 10:13:15;;;;;;;11.50;2.30;;;;;;;20.47;100.00;101071.72;5193594;28;20089;-82
2023/09/19 10:15:50;;;;;;;18.00;2.33;;;;;;;20.64;100.00;101065.44;5198148;28;20023;-80
2023/09/19 10:18:24;;;;;;;10.50;2.15;;;;;;;20.95;100.00;101069.88;5188927;28;20032;-81
2023/09/19 10:20:56;;;;;;;7.47;2.42;;;;;;;21.02;100.00;101067.06;5219820;28;20025;-81
2023/09/19 10:23:30;;;;;;;9.23;2.03;;;;;;;21.38;100.00;101060.69;5191778;28;20603;-83
2023/09/19 10:26:01;;;;;;;7.18;1.98;;;;;;;21.50;100.00;101049.84;5193635;28;20029;-84
2023/09/19 10:28:35;;;;;;;11.10;2.05;;;;;;;21.52;100.00;101052.31;5195988;28;20021;-83
2023/09/19 10:31:09;;;;;;;8.68;2.25;;;;;;;21.50;100.00;101038.09;5188302;28;20041;-83
2023/09/19 10:33:41;;;;;;;9.95;1.95;;;;;;;21.66;100.00;101048.31;5194995;28;20033;-84
2023/09/19 10:36:12;;;;;;;8.85;1.70;;;;;;;21.73;100.00;101049.88;5189926;28;20071;-83
2023/09/19 10:38:45;;;;;;;11.00;2.20;;;;;;;21.33;100.00;101059.75;5190877;28;20022;-83
2023/09/19 10:41:18;;;;;;;6.25;1.40;;;;;;;21.20;100.00;101060.75;5174833;28;20411;-83
2023/09/19 10:43:50;;;;;;;11.23;1.83;;;;;;;20.89;100.00;101043.53;5192042;28;20093;-82
2023/09/19 10:46:21;;;;;;;10.60;1.73;;;;;;;20.89;100.00;101051.72;5194432;28;20508;-84
2023/09/19 10:48:54;;;;;;;10.98;2.10;;;;;;;21.21;100.00;101046.84;5188052;28;20164;-82
2023/09/19 10:51:30;;;;;;;13.63;1.92;;;;;;;21.45;100.00;101030.59;5191866;28;20033;-80
2023/09/19 10:54:13;;;;;;;12.43;1.95;;;;;;;21.66;100.00;101035.50;5191028;28;20113;-81
2023/09/19 10:56:49;;;;;;;11.98;1.98;;;;;;;21.68;100.00;101044.28;5192339;28;20492;-80
2023/09/19 10:59:21;;;;;;;7.68;1.55;;;;;;;21.48;100.00;101034.75;5195791;28;20021;-80
2023/09/19 11:01:57;;;;;;;7.10;1.42;;;;;;;21.27;100.00;101038.81;5195849;28;20443;-81
2023/09/19 11:04:31;;;;;;;9.20;1.90;;;;;;;21.52;100.00;101060.50;5190144;28;20040;-80
2023/09/19 11:07:04;;;;;;;10.83;1.70;;;;;;;21.45;100.00;101036.06;5198865;28;20017;-81
2023/09/19 11:09:53;;;;;;;9.60;1.40;;;;;;;21.75;100.00;101036.00;5198229;28;20292;-81
2023/09/19 11:12:49;;;;;;;6.90;1.40;;;;;;;22.05;100.00;101035.06;5192475;28;20079;-80
2023/09/19 11:15:38;;;;;;;;;;;;;;;22.08;100.00;101038.13;5184894;28;20064;-81
2023/09/19 11:18:41;;;;;;;7.95;1.38;;;;;;;22.25;100.00;101032.84;5197779;28;19920;-82
2023/09/19 11:21:29;;;;;;;9.07;1.33;;;;;;;21.99;100.00;101031.38;5190995;28;20168;-81
2023/09/19 11:24:21;;;;;;;6.18;0.93;;;;;;;22.03;100.00;101035.28;5192092;28;20033;-80
2023/09/19 11:27:10;;;;;;;3.75;1.10;;;;;;;21.74;100.00;101017.97;5198073;28;20091;-81
2023/09/19 11:29:40;;;;;;;5.88;1.20;;;;;;;21.62;100.00;101008.91;5191896;28;20018;-82
2023/09/19 11:32:11;;;;;;;3.90;1.40;;;;;;;21.72;100.00;101011.88;5192262;28;20079;-81
2023/09/19 11:34:45;;;;;;;5.85;1.05;;;;;;;21.69;100.00;101009.66;5193148;28;20051;-80
2023/09/19 11:37:16;;;;;;;3.15;0.80;;;;;;;21.52;100.00;101011.38;5188376;28;21120;-81
2023/09/19 11:40:15;;;;;;;7.25;1.45;;;;;;;21.63;100.00;101000.47;5198018;28;20049;-81
2023/09/19 11:42:51;;;;;;;4.05;1.15;;;;;;;21.68;100.00;101003.31;5191037;28;20026;-80
2023/09/19 11:45:45;;;;;;;7.95;1.13;;;;;;;21.77;100.00;101000.25;5193357;28;20053;-80